sensor_id;sensor_type;location;lat;lon;timestamp;P1;durP1;ratioP1;P2;durP2;ratioP2
13985;SDS011;7067;51.832;8.296;2022-12-07T00:00:55;91.40;;;51.35;;
13985;SDS011;7067;51.832;8.296;2022-12-07T00:03:28;46.58;;;39.47;;
13985;SDS011;7067;51.832;8.296;2022-12-07T00:05:57;87.65;;;49.88;;
13985;SDS011;7067;51.832;8.296;2022-12-07T00:08:22;52.60;;;41.83;;
13985;SDS011;7067;51.832;8.296;2022-12-07T00:10:48;93.82;;;50.50;;
13985;SDS011;7067;51.832;8.296;2022-12-07T00:13:13;92.75;;;49.00;;
13985;SDS011;7067;51.832;8.296;2022-12-07T00:15:38;51.58;;;42.90;;
13985;SDS011;7067;51.832;8.296;2022-12-07T00:18:04;62.50;;;46.90;;
13985;SDS011;7067;51.832;8.296;2022-12-07T00:20:29;56.72;;;45.33;;
13985;SDS011;7067;51.832;8.296;2022-12-07T00:22:55;92.95;;;50.25;;
13985;SDS011;7067;51.832;8.296;2022-12-07T00:25:21;54.67;;;44.60;;
13985;SDS011;7067;51.832;8.296;2022-12-07T00:27:46;54.03;;;44.22;;
13985;SDS011;7067;51.832;8.296;2022-12-07T00:30:12;95.03;;;50.63;;
13985;SDS011;7067;51.832;8.296;2022-12-07T00:32:37;85.00;;;45.15;;
13985;SDS011;7067;51.832;8.296;2022-12-07T00:35:02;90.88;;;49.20;;
13985;SDS011;7067;51.832;8.296;2022-12-07T00:37:28;70.57;;;40.88;;
13985;SDS011;7067;51.832;8.296;2022-12-07T00:39:53;60.08;;;40.35;;
13985;SDS011;7067;51.832;8.296;2022-12-07T00:42:19;115.65;;;53.95;;
13985;SDS011;7067;51.832;8.296;2022-12-07T00:44:44;92.43;;;44.17;;
13985;SDS011;7067;51.832;8.296;2022-12-07T00:47:09;92.72;;;44.25;;
13985;SDS011;7067;51.832;8.296;2022-12-07T00:49:35;76.88;;;40.90;;
13985;SDS011;7067;51.832;8.296;2022-12-07T00:52:00;89.40;;;50.42;;
13985;SDS011;7067;51.832;8.296;2022-12-07T00:54:26;82.32;;;40.22;;
13985;SDS011;7067;51.832;8.296;2022-12-07T00:56:51;42.63;;;37.28;;
13985;SDS011;7067;51.832;8.296;2022-12-07T00:59:16;79.35;;;43.05;;
13985;SDS011;7067;51.832;8.296;2022-12-07T01:01:42;84.03;;;42.53;;
13985;SDS011;7067;51.832;8.296;2022-12-07T01:04:07;83.65;;;42.90;;
13985;SDS011;7067;51.832;8.296;2022-12-07T01:06:32;63.42;;;38.00;;
13985;SDS011;7067;51.832;8.296;2022-12-07T01:08:58;88.32;;;46.50;;
13985;SDS011;7067;51.832;8.296;2022-12-07T01:11:25;46.05;;;37.47;;
13985;SDS011;7067;51.832;8.296;2022-12-07T01:13:53;84.32;;;42.72;;
13985;SDS011;7067;51.832;8.296;2022-12-07T01:16:20;43.08;;;36.55;;
13985;SDS011;7067;51.832;8.296;2022-12-07T01:18:47;39.33;;;35.15;;
13985;SDS011;7067;51.832;8.296;2022-12-07T01:21:18;80.55;;;40.85;;
13985;SDS011;7067;51.832;8.296;2022-12-07T01:24:05;88.32;;;40.50;;
13985;SDS011;7067;51.832;8.296;2022-12-07T01:26:32;57.10;;;36.92;;
13985;SDS011;7067;51.832;8.296;2022-12-07T01:28:57;69.82;;;39.40;;
13985;SDS011;7067;51.832;8.296;2022-12-07T01:31:24;45.30;;;36.83;;
13985;SDS011;7067;51.832;8.296;2022-12-07T01:33:51;66.80;;;39.33;;
13985;SDS011;7067;51.832;8.296;2022-12-07T01:36:25;39.15;;;35.03;;
13985;SDS011;7067;51.832;8.296;2022-12-07T01:38:56;80.80;;;38.30;;
13985;SDS011;7067;51.832;8.296;2022-12-07T01:41:24;88.38;;;38.85;;
13985;SDS011;7067;51.832;8.296;2022-12-07T01:44:07;82.93;;;44.20;;
13985;SDS011;7067;51.832;8.296;2022-12-07T01:47:03;72.82;;;34.90;;
13985;SDS011;7067;51.832;8.296;2022-12-07T01:55:02;33.13;;;29.58;;
13985;SDS011;7067;51.832;8.296;2022-12-07T01:57:29;78.40;;;38.45;;
13985;SDS011;7067;51.832;8.296;2022-12-07T01:59:56;34.67;;;31.02;;
13985;SDS011;7067;51.832;8.296;2022-12-07T02:02:29;78.15;;;41.97;;
13985;SDS011;7067;51.832;8.296;2022-12-07T02:04:57;55.72;;;33.22;;
13985;SDS011;7067;51.832;8.296;2022-12-07T02:07:24;72.40;;;34.78;;
13985;SDS011;7067;51.832;8.296;2022-12-07T02:09:50;70.38;;;35.95;;
13985;SDS011;7067;51.832;8.296;2022-12-07T02:12:15;74.35;;;34.35;;
13985;SDS011;7067;51.832;8.296;2022-12-07T02:14:40;32.03;;;28.52;;
13985;SDS011;7067;51.832;8.296;2022-12-07T02:27:49;78.18;;;36.08;;
13985;SDS011;7067;51.832;8.296;2022-12-07T02:30:19;73.57;;;31.10;;
13985;SDS011;7067;51.832;8.296;2022-12-07T02:32:51;68.25;;;31.63;;
13985;SDS011;7067;51.832;8.296;2022-12-07T02:35:31;46.10;;;28.33;;
13985;SDS011;7067;51.832;8.296;2022-12-07T02:40:38;80.40;;;31.42;;
13985;SDS011;7067;51.832;8.296;2022-12-07T02:46:03;71.43;;;31.92;;
13985;SDS011;7067;51.832;8.296;2022-12-07T02:48:31;32.65;;;25.52;;
13985;SDS011;7067;51.832;8.296;2022-12-07T02:50:58;77.78;;;33.63;;
13985;SDS011;7067;51.832;8.296;2022-12-07T03:07:21;26.15;;;18.63;;
13985;SDS011;7067;51.832;8.296;2022-12-07T03:13:02;21.95;;;17.48;;
13985;SDS011;7067;51.832;8.296;2022-12-07T03:15:35;26.40;;;19.80;;
13985;SDS011;7067;51.832;8.296;2022-12-07T03:18:03;56.20;;;21.98;;
13985;SDS011;7067;51.832;8.296;2022-12-07T03:20:29;53.17;;;21.95;;
13985;SDS011;7067;51.832;8.296;2022-12-07T03:22:55;20.90;;;18.13;;
13985;SDS011;7067;51.832;8.296;2022-12-07T03:25:21;86.78;;;25.48;;
13985;SDS011;7067;51.832;8.296;2022-12-07T03:30:24;24.80;;;18.10;;
13985;SDS011;7067;51.832;8.296;2022-12-07T03:35:38;61.72;;;20.60;;
13985;SDS011;7067;51.832;8.296;2022-12-07T03:40:50;26.42;;;17.13;;
13985;SDS011;7067;51.832;8.296;2022-12-07T03:43:19;32.15;;;18.52;;
13985;SDS011;7067;51.832;8.296;2022-12-07T03:45:51;31.00;;;18.92;;
13985;SDS011;7067;51.832;8.296;2022-12-07T03:48:28;45.03;;;19.57;;
13985;SDS011;7067;51.832;8.296;2022-12-07T03:53:46;23.73;;;17.65;;
13985;SDS011;7067;51.832;8.296;2022-12-07T03:56:13;31.13;;;18.58;;
13985;SDS011;7067;51.832;8.296;2022-12-07T03:58:39;19.40;;;17.10;;
13985;SDS011;7067;51.832;8.296;2022-12-07T04:01:05;52.67;;;19.77;;
13985;SDS011;7067;51.832;8.296;2022-12-07T04:03:30;28.27;;;17.60;;
13985;SDS011;7067;51.832;8.296;2022-12-07T04:05:55;18.37;;;16.43;;
13985;SDS011;7067;51.832;8.296;2022-12-07T04:08:21;33.00;;;17.23;;
13985;SDS011;7067;51.832;8.296;2022-12-07T04:10:46;26.17;;;17.77;;
13985;SDS011;7067;51.832;8.296;2022-12-07T04:13:11;35.00;;;19.10;;
13985;SDS011;7067;51.832;8.296;2022-12-07T04:15:37;45.80;;;20.67;;
13985;SDS011;7067;51.832;8.296;2022-12-07T04:18:02;38.93;;;19.27;;
13985;SDS011;7067;51.832;8.296;2022-12-07T04:20:27;24.50;;;18.93;;
13985;SDS011;7067;51.832;8.296;2022-12-07T04:22:53;57.77;;;23.23;;
13985;SDS011;7067;51.832;8.296;2022-12-07T04:25:18;32.30;;;19.70;;
13985;SDS011;7067;51.832;8.296;2022-12-07T04:27:43;66.57;;;23.43;;
13985;SDS011;7067;51.832;8.296;2022-12-07T04:30:09;29.90;;;20.63;;
13985;SDS011;7067;51.832;8.296;2022-12-07T04:32:35;28.83;;;20.43;;
13985;SDS011;7067;51.832;8.296;2022-12-07T04:35:00;31.20;;;22.30;;
13985;SDS011;7067;51.832;8.296;2022-12-07T04:37:25;28.03;;;20.67;;
13985;SDS011;7067;51.832;8.296;2022-12-07T04:39:51;34.27;;;21.40;;
13985;SDS011;7067;51.832;8.296;2022-12-07T04:42:16;67.77;;;24.43;;
13985;SDS011;7067;51.832;8.296;2022-12-07T04:44:41;28.40;;;21.10;;
13985;SDS011;7067;51.832;8.296;2022-12-07T04:47:06;32.27;;;21.17;;
13985;SDS011;7067;51.832;8.296;2022-12-07T04:49:32;70.57;;;26.27;;
13985;SDS011;7067;51.832;8.296;2022-12-07T04:51:57;32.43;;;21.10;;
13985;SDS011;7067;51.832;8.296;2022-12-07T04:54:23;41.27;;;22.63;;
13985;SDS011;7067;51.832;8.296;2022-12-07T04:56:48;34.70;;;21.43;;
13985;SDS011;7067;51.832;8.296;2022-12-07T04:59:14;27.17;;;20.03;;
13985;SDS011;7067;51.832;8.296;2022-12-07T05:01:41;51.70;;;22.93;;
13985;SDS011;7067;51.832;8.296;2022-12-07T05:04:06;25.07;;;20.03;;
13985;SDS011;7067;51.832;8.296;2022-12-07T05:06:32;28.73;;;21.20;;
13985;SDS011;7067;51.832;8.296;2022-12-07T05:08:58;32.90;;;21.47;;
13985;SDS011;7067;51.832;8.296;2022-12-07T05:11:23;39.53;;;22.10;;
13985;SDS011;7067;51.832;8.296;2022-12-07T05:14:05;60.07;;;22.40;;
13985;SDS011;7067;51.832;8.296;2022-12-07T05:16:41;45.33;;;19.87;;
13985;SDS011;7067;51.832;8.296;2022-12-07T05:19:08;31.87;;;20.30;;
13985;SDS011;7067;51.832;8.296;2022-12-07T05:21:34;58.17;;;24.00;;
13985;SDS011;7067;51.832;8.296;2022-12-07T05:23:59;73.80;;;27.37;;
13985;SDS011;7067;51.832;8.296;2022-12-07T05:26:25;27.67;;;19.83;;
13985;SDS011;7067;51.832;8.296;2022-12-07T05:28:51;33.43;;;19.90;;
13985;SDS011;7067;51.832;8.296;2022-12-07T05:31:20;26.35;;;20.70;;
13985;SDS011;7067;51.832;8.296;2022-12-07T05:33:46;27.90;;;20.33;;
13985;SDS011;7067;51.832;8.296;2022-12-07T05:36:11;27.17;;;20.23;;
13985;SDS011;7067;51.832;8.296;2022-12-07T05:38:36;75.13;;;26.30;;
13985;SDS011;7067;51.832;8.296;2022-12-07T05:41:02;25.53;;;18.37;;
13985;SDS011;7067;51.832;8.296;2022-12-07T05:43:29;54.30;;;23.20;;
13985;SDS011;7067;51.832;8.296;2022-12-07T05:45:55;42.70;;;19.23;;
13985;SDS011;7067;51.832;8.296;2022-12-07T05:48:21;45.40;;;19.90;;
13985;SDS011;7067;51.832;8.296;2022-12-07T05:50:49;29.13;;;19.47;;
13985;SDS011;7067;51.832;8.296;2022-12-07T05:53:15;28.07;;;18.63;;
13985;SDS011;7067;51.832;8.296;2022-12-07T05:55:41;23.80;;;16.60;;
13985;SDS011;7067;51.832;8.296;2022-12-07T05:58:06;31.13;;;19.07;;
13985;SDS011;7067;51.832;8.296;2022-12-07T06:00:50;54.30;;;21.20;;
13985;SDS011;7067;51.832;8.296;2022-12-07T06:03:15;39.97;;;19.00;;
13985;SDS011;7067;51.832;8.296;2022-12-07T06:05:41;23.60;;;17.10;;
13985;SDS011;7067;51.832;8.296;2022-12-07T06:08:06;25.50;;;17.47;;
13985;SDS011;7067;51.832;8.296;2022-12-07T06:10:32;24.33;;;16.57;;
13985;SDS011;7067;51.832;8.296;2022-12-07T06:12:57;44.83;;;16.93;;
13985;SDS011;7067;51.832;8.296;2022-12-07T06:15:22;44.90;;;17.80;;
13985;SDS011;7067;51.832;8.296;2022-12-07T06:17:48;24.00;;;16.33;;
13985;SDS011;7067;51.832;8.296;2022-12-07T06:20:13;73.43;;;22.80;;
13985;SDS011;7067;51.832;8.296;2022-12-07T06:22:38;22.90;;;15.67;;
13985;SDS011;7067;51.832;8.296;2022-12-07T06:25:04;27.83;;;17.07;;
13985;SDS011;7067;51.832;8.296;2022-12-07T06:27:29;26.77;;;15.63;;
13985;SDS011;7067;51.832;8.296;2022-12-07T06:29:55;46.60;;;19.43;;
13985;SDS011;7067;51.832;8.296;2022-12-07T06:32:20;23.27;;;15.70;;
13985;SDS011;7067;51.832;8.296;2022-12-07T06:34:46;18.60;;;15.07;;
13985;SDS011;7067;51.832;8.296;2022-12-07T06:37:12;22.77;;;14.73;;
13985;SDS011;7067;51.832;8.296;2022-12-07T06:39:37;23.63;;;14.63;;
13985;SDS011;7067;51.832;8.296;2022-12-07T06:42:03;23.97;;;16.03;;
13985;SDS011;7067;51.832;8.296;2022-12-07T06:44:29;35.77;;;16.80;;
13985;SDS011;7067;51.832;8.296;2022-12-07T06:46:54;35.37;;;17.67;;
13985;SDS011;7067;51.832;8.296;2022-12-07T06:49:20;47.60;;;16.43;;
13985;SDS011;7067;51.832;8.296;2022-12-07T06:51:45;22.37;;;14.37;;
13985;SDS011;7067;51.832;8.296;2022-12-07T06:54:11;32.47;;;15.33;;
13985;SDS011;7067;51.832;8.296;2022-12-07T06:56:37;29.07;;;15.00;;
13985;SDS011;7067;51.832;8.296;2022-12-07T06:59:03;23.00;;;15.73;;
13985;SDS011;7067;51.832;8.296;2022-12-07T07:01:30;24.13;;;14.23;;
13985;SDS011;7067;51.832;8.296;2022-12-07T07:03:55;20.30;;;13.73;;
13985;SDS011;7067;51.832;8.296;2022-12-07T07:06:21;33.17;;;14.30;;
13985;SDS011;7067;51.832;8.296;2022-12-07T07:08:46;26.77;;;13.83;;
13985;SDS011;7067;51.832;8.296;2022-12-07T07:11:12;35.30;;;15.40;;
13985;SDS011;7067;51.832;8.296;2022-12-07T07:13:37;42.13;;;16.63;;
13985;SDS011;7067;51.832;8.296;2022-12-07T07:16:03;25.30;;;15.10;;
13985;SDS011;7067;51.832;8.296;2022-12-07T07:18:28;53.83;;;15.90;;
13985;SDS011;7067;51.832;8.296;2022-12-07T07:20:54;55.93;;;16.17;;
13985;SDS011;7067;51.832;8.296;2022-12-07T07:23:20;61.53;;;17.93;;
13985;SDS011;7067;51.832;8.296;2022-12-07T07:25:45;42.80;;;14.23;;
13985;SDS011;7067;51.832;8.296;2022-12-07T07:28:11;18.03;;;12.10;;
13985;SDS011;7067;51.832;8.296;2022-12-07T07:30:37;38.67;;;13.73;;
13985;SDS011;7067;51.832;8.296;2022-12-07T07:33:03;44.50;;;13.70;;
13985;SDS011;7067;51.832;8.296;2022-12-07T07:35:29;54.50;;;16.20;;
13985;SDS011;7067;51.832;8.296;2022-12-07T07:37:56;47.93;;;13.73;;
13985;SDS011;7067;51.832;8.296;2022-12-07T07:40:21;47.40;;;15.17;;
13985;SDS011;7067;51.832;8.296;2022-12-07T07:42:50;21.73;;;14.63;;
13985;SDS011;7067;51.832;8.296;2022-12-07T07:45:16;26.15;;;12.57;;
13985;SDS011;7067;51.832;8.296;2022-12-07T07:47:42;24.50;;;13.67;;
13985;SDS011;7067;51.832;8.296;2022-12-07T07:50:08;32.03;;;12.50;;
13985;SDS011;7067;51.832;8.296;2022-12-07T07:52:34;50.53;;;14.63;;
13985;SDS011;7067;51.832;8.296;2022-12-07T07:54:59;18.17;;;11.83;;
13985;SDS011;7067;51.832;8.296;2022-12-07T07:57:24;20.60;;;11.60;;
13985;SDS011;7067;51.832;8.296;2022-12-07T07:59:49;21.67;;;11.53;;
13985;SDS011;7067;51.832;8.296;2022-12-07T08:02:16;18.40;;;12.27;;
13985;SDS011;7067;51.832;8.296;2022-12-07T08:04:42;57.53;;;15.60;;
13985;SDS011;7067;51.832;8.296;2022-12-07T08:07:08;18.77;;;11.20;;
13985;SDS011;7067;51.832;8.296;2022-12-07T08:09:33;15.97;;;10.10;;
13985;SDS011;7067;51.832;8.296;2022-12-07T08:11:59;21.53;;;11.00;;
13985;SDS011;7067;51.832;8.296;2022-12-07T08:14:25;22.50;;;10.77;;
13985;SDS011;7067;51.832;8.296;2022-12-07T08:16:52;16.43;;;10.13;;
13985;SDS011;7067;51.832;8.296;2022-12-07T08:19:18;60.73;;;14.23;;
13985;SDS011;7067;51.832;8.296;2022-12-07T08:21:44;41.00;;;11.83;;
13985;SDS011;7067;51.832;8.296;2022-12-07T08:24:10;43.87;;;13.37;;
13985;SDS011;7067;51.832;8.296;2022-12-07T08:26:35;19.30;;;10.93;;
13985;SDS011;7067;51.832;8.296;2022-12-07T08:29:01;58.33;;;15.97;;
13985;SDS011;7067;51.832;8.296;2022-12-07T08:31:26;25.90;;;10.00;;
13985;SDS011;7067;51.832;8.296;2022-12-07T08:33:52;18.93;;;10.00;;
13985;SDS011;7067;51.832;8.296;2022-12-07T08:36:18;24.83;;;10.00;;
13985;SDS011;7067;51.832;8.296;2022-12-07T08:38:43;37.17;;;10.50;;
13985;SDS011;7067;51.832;8.296;2022-12-07T08:41:09;18.30;;;10.17;;
13985;SDS011;7067;51.832;8.296;2022-12-07T08:43:35;20.13;;;9.63;;
13985;SDS011;7067;51.832;8.296;2022-12-07T08:48:52;23.93;;;9.07;;
13985;SDS011;7067;51.832;8.296;2022-12-07T08:51:20;18.63;;;9.37;;
13985;SDS011;7067;51.832;8.296;2022-12-07T08:53:46;14.50;;;7.77;;
13985;SDS011;7067;51.832;8.296;2022-12-07T08:56:12;16.23;;;8.90;;
13985;SDS011;7067;51.832;8.296;2022-12-07T08:58:38;14.93;;;8.20;;
13985;SDS011;7067;51.832;8.296;2022-12-07T09:01:04;31.70;;;10.63;;
13985;SDS011;7067;51.832;8.296;2022-12-07T09:03:29;17.50;;;8.47;;
13985;SDS011;7067;51.832;8.296;2022-12-07T09:05:56;12.30;;;8.10;;
13985;SDS011;7067;51.832;8.296;2022-12-07T09:08:23;16.70;;;8.63;;
13985;SDS011;7067;51.832;8.296;2022-12-07T09:10:51;44.40;;;9.27;;
13985;SDS011;7067;51.832;8.296;2022-12-07T09:13:17;19.10;;;9.03;;
13985;SDS011;7067;51.832;8.296;2022-12-07T09:15:42;47.47;;;10.33;;
13985;SDS011;7067;51.832;8.296;2022-12-07T09:18:08;21.30;;;9.13;;
13985;SDS011;7067;51.832;8.296;2022-12-07T09:20:33;16.10;;;7.83;;
13985;SDS011;7067;51.832;8.296;2022-12-07T09:22:58;14.13;;;7.10;;
13985;SDS011;7067;51.832;8.296;2022-12-07T09:25:24;16.43;;;7.57;;
13985;SDS011;7067;51.832;8.296;2022-12-07T09:27:54;59.00;;;11.43;;
13985;SDS011;7067;51.832;8.296;2022-12-07T09:30:20;29.30;;;8.10;;
13985;SDS011;7067;51.832;8.296;2022-12-07T09:32:46;12.43;;;6.80;;
13985;SDS011;7067;51.832;8.296;2022-12-07T09:35:11;23.53;;;8.40;;
13985;SDS011;7067;51.832;8.296;2022-12-07T09:37:36;16.53;;;6.90;;
13985;SDS011;7067;51.832;8.296;2022-12-07T09:40:02;21.53;;;7.17;;
13985;SDS011;7067;51.832;8.296;2022-12-07T09:42:32;18.60;;;6.77;;
13985;SDS011;7067;51.832;8.296;2022-12-07T09:45:04;14.93;;;7.73;;
13985;SDS011;7067;51.832;8.296;2022-12-07T09:47:31;49.80;;;12.03;;
13985;SDS011;7067;51.832;8.296;2022-12-07T09:50:00;21.10;;;8.37;;
13985;SDS011;7067;51.832;8.296;2022-12-07T09:52:29;56.47;;;10.23;;
13985;SDS011;7067;51.832;8.296;2022-12-07T09:54:55;15.30;;;6.13;;
13985;SDS011;7067;51.832;8.296;2022-12-07T09:57:24;11.97;;;7.07;;
13985;SDS011;7067;51.832;8.296;2022-12-07T09:59:53;41.53;;;11.60;;
13985;SDS011;7067;51.832;8.296;2022-12-07T10:05:09;94.07;;;21.13;;
13985;SDS011;7067;51.832;8.296;2022-12-07T10:07:46;48.08;;;10.52;;
13985;SDS011;7067;51.832;8.296;2022-12-07T10:10:13;49.53;;;11.70;;
13985;SDS011;7067;51.832;8.296;2022-12-07T10:13:14;13.98;;;8.38;;
13985;SDS011;7067;51.832;8.296;2022-12-07T10:20:45;51.50;;;10.88;;
13985;SDS011;7067;51.832;8.296;2022-12-07T10:23:16;19.45;;;7.32;;
13985;SDS011;7067;51.832;8.296;2022-12-07T10:25:43;15.67;;;8.23;;
13985;SDS011;7067;51.832;8.296;2022-12-07T10:28:16;31.53;;;8.23;;
13985;SDS011;7067;51.832;8.296;2022-12-07T10:33:29;15.20;;;7.82;;
13985;SDS011;7067;51.832;8.296;2022-12-07T10:35:57;48.65;;;10.88;;
13985;SDS011;7067;51.832;8.296;2022-12-07T10:38:24;12.60;;;5.47;;
13985;SDS011;7067;51.832;8.296;2022-12-07T10:41:02;26.63;;;6.75;;
13985;SDS011;7067;51.832;8.296;2022-12-07T10:43:29;57.03;;;13.33;;
13985;SDS011;7067;51.832;8.296;2022-12-07T10:46:13;75.32;;;16.83;;
13985;SDS011;7067;51.832;8.296;2022-12-07T10:54:12;52.67;;;11.73;;
13985;SDS011;7067;51.832;8.296;2022-12-07T10:59:42;14.88;;;6.68;;
13985;SDS011;7067;51.832;8.296;2022-12-07T11:08:05;18.98;;;8.70;;
13985;SDS011;7067;51.832;8.296;2022-12-07T11:10:44;39.03;;;7.63;;
13985;SDS011;7067;51.832;8.296;2022-12-07T11:21:45;60.00;;;15.45;;
13985;SDS011;7067;51.832;8.296;2022-12-07T11:24:16;57.17;;;16.42;;
13985;SDS011;7067;51.832;8.296;2022-12-07T11:26:50;45.90;;;7.93;;
13985;SDS011;7067;51.832;8.296;2022-12-07T11:34:50;21.48;;;5.72;;
13985;SDS011;7067;51.832;8.296;2022-12-07T11:37:29;53.80;;;13.90;;
13985;SDS011;7067;51.832;8.296;2022-12-07T11:45:37;43.67;;;8.40;;
13985;SDS011;7067;51.832;8.296;2022-12-07T11:48:11;18.73;;;5.90;;
13985;SDS011;7067;51.832;8.296;2022-12-07T11:50:50;76.03;;;13.87;;
13985;SDS011;7067;51.832;8.296;2022-12-07T11:53:23;61.63;;;17.42;;
13985;SDS011;7067;51.832;8.296;2022-12-07T11:56:11;50.42;;;9.70;;
13985;SDS011;7067;51.832;8.296;2022-12-07T12:03:52;59.92;;;13.95;;
13985;SDS011;7067;51.832;8.296;2022-12-07T12:06:21;29.20;;;6.93;;
13985;SDS011;7067;51.832;8.296;2022-12-07T12:14:41;37.58;;;7.03;;
13985;SDS011;7067;51.832;8.296;2022-12-07T12:25:39;16.58;;;5.10;;
13985;SDS011;7067;51.832;8.296;2022-12-07T12:28:05;33.10;;;4.40;;
13985;SDS011;7067;51.832;8.296;2022-12-07T12:33:03;54.47;;;12.38;;
13985;SDS011;7067;51.832;8.296;2022-12-07T12:35:36;27.80;;;6.10;;
13985;SDS011;7067;51.832;8.296;2022-12-07T12:40:53;60.35;;;12.88;;
13985;SDS011;7067;51.832;8.296;2022-12-07T12:48:55;52.33;;;11.10;;
13985;SDS011;7067;51.832;8.296;2022-12-07T12:51:39;52.47;;;9.85;;
13985;SDS011;7067;51.832;8.296;2022-12-07T12:54:08;63.72;;;14.57;;
13985;SDS011;7067;51.832;8.296;2022-12-07T12:59:38;40.67;;;7.05;;
13985;SDS011;7067;51.832;8.296;2022-12-07T13:13:01;66.45;;;14.65;;
13985;SDS011;7067;51.832;8.296;2022-12-07T13:15:46;22.40;;;4.32;;
13985;SDS011;7067;51.832;8.296;2022-12-07T13:23:21;47.60;;;7.85;;
13985;SDS011;7067;51.832;8.296;2022-12-07T13:25:54;65.95;;;16.15;;
13985;SDS011;7067;51.832;8.296;2022-12-07T13:28:23;59.92;;;12.15;;
13985;SDS011;7067;51.832;8.296;2022-12-07T13:31:01;53.28;;;12.13;;
13985;SDS011;7067;51.832;8.296;2022-12-07T13:33:34;51.92;;;14.70;;
13985;SDS011;7067;51.832;8.296;2022-12-07T13:35:59;34.65;;;5.25;;
13985;SDS011;7067;51.832;8.296;2022-12-07T13:41:02;56.88;;;10.10;;
13985;SDS011;7067;51.832;8.296;2022-12-07T13:43:28;46.50;;;9.32;;
13985;SDS011;7067;51.832;8.296;2022-12-07T13:45:57;59.35;;;15.07;;
13985;SDS011;7067;51.832;8.296;2022-12-07T13:50:59;62.63;;;12.20;;
13985;SDS011;7067;51.832;8.296;2022-12-07T13:53:26;56.35;;;14.48;;
13985;SDS011;7067;51.832;8.296;2022-12-07T13:55:55;35.88;;;6.70;;
13985;SDS011;7067;51.832;8.296;2022-12-07T13:58:21;57.83;;;15.63;;
13985;SDS011;7067;51.832;8.296;2022-12-07T14:00:47;20.23;;;4.45;;
13985;SDS011;7067;51.832;8.296;2022-12-07T14:05:38;17.75;;;3.85;;
13985;SDS011;7067;51.832;8.296;2022-12-07T14:08:06;49.40;;;11.25;;
13985;SDS011;7067;51.832;8.296;2022-12-07T14:16:30;40.95;;;6.32;;
13985;SDS011;7067;51.832;8.296;2022-12-07T14:18:56;38.65;;;5.78;;
13985;SDS011;7067;51.832;8.296;2022-12-07T14:21:27;58.50;;;10.32;;
13985;SDS011;7067;51.832;8.296;2022-12-07T14:26:43;12.23;;;4.95;;
13985;SDS011;7067;51.832;8.296;2022-12-07T14:31:50;54.03;;;9.15;;
13985;SDS011;7067;51.832;8.296;2022-12-07T14:34:16;57.55;;;10.00;;
13985;SDS011;7067;51.832;8.296;2022-12-07T14:36:42;56.70;;;14.30;;
13985;SDS011;7067;51.832;8.296;2022-12-07T14:39:07;47.38;;;12.35;;
13985;SDS011;7067;51.832;8.296;2022-12-07T14:41:33;51.05;;;10.23;;
13985;SDS011;7067;51.832;8.296;2022-12-07T14:44:17;33.10;;;5.28;;
13985;SDS011;7067;51.832;8.296;2022-12-07T14:46:44;62.55;;;17.10;;
13985;SDS011;7067;51.832;8.296;2022-12-07T14:49:10;51.45;;;9.32;;
13985;SDS011;7067;51.832;8.296;2022-12-07T14:51:36;7.95;;;3.53;;
13985;SDS011;7067;51.832;8.296;2022-12-07T14:54:02;51.03;;;10.57;;
13985;SDS011;7067;51.832;8.296;2022-12-07T14:56:29;49.92;;;7.35;;
13985;SDS011;7067;51.832;8.296;2022-12-07T14:58:54;59.90;;;11.70;;
13985;SDS011;7067;51.832;8.296;2022-12-07T15:01:20;54.33;;;10.82;;
13985;SDS011;7067;51.832;8.296;2022-12-07T15:03:45;49.50;;;9.80;;
13985;SDS011;7067;51.832;8.296;2022-12-07T15:06:13;61.90;;;12.48;;
13985;SDS011;7067;51.832;8.296;2022-12-07T15:08:40;14.95;;;4.72;;
13985;SDS011;7067;51.832;8.296;2022-12-07T15:11:05;51.73;;;9.97;;
13985;SDS011;7067;51.832;8.296;2022-12-07T15:13:30;32.87;;;6.87;;
13985;SDS011;7067;51.832;8.296;2022-12-07T15:16:16;53.22;;;8.43;;
13985;SDS011;7067;51.832;8.296;2022-12-07T15:18:44;42.47;;;6.97;;
13985;SDS011;7067;51.832;8.296;2022-12-07T15:21:13;43.33;;;7.57;;
13985;SDS011;7067;51.832;8.296;2022-12-07T15:23:39;11.45;;;4.68;;
13985;SDS011;7067;51.832;8.296;2022-12-07T15:26:05;37.60;;;7.93;;
13985;SDS011;7067;51.832;8.296;2022-12-07T15:28:30;44.17;;;6.93;;
13985;SDS011;7067;51.832;8.296;2022-12-07T15:30:56;55.60;;;11.73;;
13985;SDS011;7067;51.832;8.296;2022-12-07T15:33:21;33.47;;;6.23;;
13985;SDS011;7067;51.832;8.296;2022-12-07T15:35:46;21.23;;;4.30;;
13985;SDS011;7067;51.832;8.296;2022-12-07T15:38:12;35.85;;;5.82;;
13985;SDS011;7067;51.832;8.296;2022-12-07T15:40:37;55.03;;;11.20;;
13985;SDS011;7067;51.832;8.296;2022-12-07T15:43:03;51.17;;;8.15;;
13985;SDS011;7067;51.832;8.296;2022-12-07T15:45:29;24.05;;;4.05;;
13985;SDS011;7067;51.832;8.296;2022-12-07T15:47:54;12.77;;;5.43;;
13985;SDS011;7067;51.832;8.296;2022-12-07T15:50:20;50.77;;;11.70;;
13985;SDS011;7067;51.832;8.296;2022-12-07T15:52:46;7.93;;;3.65;;
13985;SDS011;7067;51.832;8.296;2022-12-07T15:55:11;9.67;;;3.33;;
13985;SDS011;7067;51.832;8.296;2022-12-07T15:57:37;11.47;;;4.53;;
13985;SDS011;7067;51.832;8.296;2022-12-07T16:00:04;54.20;;;8.13;;
13985;SDS011;7067;51.832;8.296;2022-12-07T16:02:31;36.67;;;7.07;;
13985;SDS011;7067;51.832;8.296;2022-12-07T16:04:56;48.80;;;9.80;;
13985;SDS011;7067;51.832;8.296;2022-12-07T16:07:22;57.50;;;13.50;;
13985;SDS011;7067;51.832;8.296;2022-12-07T16:09:47;39.75;;;7.53;;
13985;SDS011;7067;51.832;8.296;2022-12-07T16:12:14;54.75;;;12.05;;
13985;SDS011;7067;51.832;8.296;2022-12-07T16:14:39;51.88;;;11.27;;
13985;SDS011;7067;51.832;8.296;2022-12-07T16:17:05;10.57;;;3.60;;
13985;SDS011;7067;51.832;8.296;2022-12-07T16:19:32;53.45;;;8.57;;
13985;SDS011;7067;51.832;8.296;2022-12-07T16:21:57;33.25;;;5.35;;
13985;SDS011;7067;51.832;8.296;2022-12-07T16:24:23;49.83;;;6.53;;
13985;SDS011;7067;51.832;8.296;2022-12-07T16:26:48;7.50;;;3.80;;
13985;SDS011;7067;51.832;8.296;2022-12-07T16:29:15;20.90;;;3.50;;
13985;SDS011;7067;51.832;8.296;2022-12-07T16:31:41;30.15;;;5.10;;
13985;SDS011;7067;51.832;8.296;2022-12-07T16:34:07;15.90;;;4.03;;
13985;SDS011;7067;51.832;8.296;2022-12-07T16:36:33;32.10;;;4.63;;
13985;SDS011;7067;51.832;8.296;2022-12-07T16:38:59;6.90;;;3.33;;
13985;SDS011;7067;51.832;8.296;2022-12-07T16:41:25;33.87;;;4.40;;
13985;SDS011;7067;51.832;8.296;2022-12-07T16:43:51;42.23;;;5.77;;
13985;SDS011;7067;51.832;8.296;2022-12-07T16:46:16;17.60;;;4.15;;
13985;SDS011;7067;51.832;8.296;2022-12-07T16:48:42;55.40;;;8.23;;
13985;SDS011;7067;51.832;8.296;2022-12-07T16:51:08;28.43;;;4.70;;
13985;SDS011;7067;51.832;8.296;2022-12-07T16:53:35;18.33;;;3.60;;
13985;SDS011;7067;51.832;8.296;2022-12-07T16:56:01;7.27;;;3.87;;
13985;SDS011;7067;51.832;8.296;2022-12-07T16:58:26;7.50;;;3.07;;
13985;SDS011;7067;51.832;8.296;2022-12-07T17:00:52;47.33;;;7.93;;
13985;SDS011;7067;51.832;8.296;2022-12-07T17:03:17;37.33;;;6.97;;
13985;SDS011;7067;51.832;8.296;2022-12-07T17:05:43;48.47;;;7.67;;
13985;SDS011;7067;51.832;8.296;2022-12-07T17:08:10;11.27;;;3.47;;
13985;SDS011;7067;51.832;8.296;2022-12-07T17:10:37;50.73;;;8.07;;
13985;SDS011;7067;51.832;8.296;2022-12-07T17:13:04;36.97;;;5.17;;
13985;SDS011;7067;51.832;8.296;2022-12-07T17:16:00;28.03;;;4.00;;
13985;SDS011;7067;51.832;8.296;2022-12-07T17:18:27;40.40;;;4.23;;
13985;SDS011;7067;51.832;8.296;2022-12-07T17:20:54;43.30;;;6.57;;
13985;SDS011;7067;51.832;8.296;2022-12-07T17:23:19;53.83;;;11.30;;
13985;SDS011;7067;51.832;8.296;2022-12-07T17:25:45;18.53;;;4.30;;